sensor_id;sensor_type;location;lat;lon;timestamp;P1;durP1;ratioP1;P2;durP2;ratioP2
15022;SDS011;19850;49.576;10.880;2022-12-04T00:02:16;9.17;;;8.13;;
15022;SDS011;19850;49.576;10.880;2022-12-04T00:06:20;11.93;;;9.20;;
15022;SDS011;19850;49.576;10.880;2022-12-04T00:10:23;9.57;;;8.50;;
15022;SDS011;19850;49.576;10.880;2022-12-04T00:14:26;11.13;;;9.53;;
15022;SDS011;19850;49.576;10.880;2022-12-04T00:18:30;11.17;;;8.87;;
15022;SDS011;19850;49.576;10.880;2022-12-04T00:22:33;11.20;;;9.07;;
15022;SDS011;19850;49.576;10.880;2022-12-04T00:26:36;10.47;;;9.30;;
15022;SDS011;19850;49.576;10.880;2022-12-04T00:30:39;10.80;;;8.87;;
15022;SDS011;19850;49.576;10.880;2022-12-04T00:34:43;10.47;;;9.37;;
15022;SDS011;19850;49.576;10.880;2022-12-04T00:38:46;9.53;;;8.60;;
15022;SDS011;19850;49.576;10.880;2022-12-04T00:42:50;12.50;;;10.40;;
15022;SDS011;19850;49.576;10.880;2022-12-04T00:46:53;12.50;;;10.47;;
15022;SDS011;19850;49.576;10.880;2022-12-04T00:51:00;11.17;;;9.23;;
15022;SDS011;19850;49.576;10.880;2022-12-04T00:55:04;14.50;;;10.40;;
15022;SDS011;19850;49.576;10.880;2022-12-04T00:59:08;12.43;;;10.40;;
15022;SDS011;19850;49.576;10.880;2022-12-04T01:03:11;12.83;;;10.43;;
15022;SDS011;19850;49.576;10.880;2022-12-04T01:07:16;11.03;;;9.53;;
15022;SDS011;19850;49.576;10.880;2022-12-04T01:11:19;11.77;;;9.20;;
15022;SDS011;19850;49.576;10.880;2022-12-04T01:15:22;11.23;;;9.43;;
15022;SDS011;19850;49.576;10.880;2022-12-04T01:19:25;10.67;;;9.03;;
15022;SDS011;19850;49.576;10.880;2022-12-04T01:23:29;10.40;;;9.17;;
15022;SDS011;19850;49.576;10.880;2022-12-04T01:27:32;11.23;;;9.20;;
15022;SDS011;19850;49.576;10.880;2022-12-04T01:31:35;10.57;;;9.27;;
15022;SDS011;19850;49.576;10.880;2022-12-04T01:35:38;11.80;;;9.20;;
15022;SDS011;19850;49.576;10.880;2022-12-04T01:39:42;10.13;;;8.77;;
15022;SDS011;19850;49.576;10.880;2022-12-04T01:48:12;12.90;;;9.70;;
15022;SDS011;19850;49.576;10.880;2022-12-04T01:52:20;10.77;;;9.27;;
15022;SDS011;19850;49.576;10.880;2022-12-04T01:56:25;10.40;;;9.30;;
15022;SDS011;19850;49.576;10.880;2022-12-04T02:00:33;10.27;;;9.10;;
15022;SDS011;19850;49.576;10.880;2022-12-04T02:04:35;11.13;;;9.17;;
15022;SDS011;19850;49.576;10.880;2022-12-04T02:08:38;10.73;;;9.10;;
15022;SDS011;19850;49.576;10.880;2022-12-04T02:12:44;11.33;;;9.63;;
15022;SDS011;19850;49.576;10.880;2022-12-04T02:16:51;12.00;;;8.97;;
15022;SDS011;19850;49.576;10.880;2022-12-04T02:20:59;11.37;;;9.30;;
15022;SDS011;19850;49.576;10.880;2022-12-04T02:25:06;9.83;;;8.80;;
15022;SDS011;19850;49.576;10.880;2022-12-04T02:29:20;9.37;;;8.37;;
15022;SDS011;19850;49.576;10.880;2022-12-04T02:33:28;10.10;;;8.70;;
15022;SDS011;19850;49.576;10.880;2022-12-04T02:37:36;8.63;;;7.83;;
15022;SDS011;19850;49.576;10.880;2022-12-04T02:41:40;10.30;;;8.53;;
15022;SDS011;19850;49.576;10.880;2022-12-04T02:45:47;10.47;;;8.43;;
15022;SDS011;19850;49.576;10.880;2022-12-04T02:49:54;9.30;;;8.30;;
15022;SDS011;19850;49.576;10.880;2022-12-04T02:54:02;10.10;;;8.70;;
15022;SDS011;19850;49.576;10.880;2022-12-04T02:58:08;9.50;;;8.43;;
15022;SDS011;19850;49.576;10.880;2022-12-04T03:02:18;10.87;;;8.63;;
15022;SDS011;19850;49.576;10.880;2022-12-04T03:06:25;10.20;;;8.37;;
15022;SDS011;19850;49.576;10.880;2022-12-04T03:10:30;10.33;;;9.23;;
15022;SDS011;19850;49.576;10.880;2022-12-04T03:14:36;9.83;;;8.37;;
15022;SDS011;19850;49.576;10.880;2022-12-04T03:18:42;9.27;;;8.33;;
15022;SDS011;19850;49.576;10.880;2022-12-04T03:22:50;9.50;;;8.50;;
15022;SDS011;19850;49.576;10.880;2022-12-04T03:26:55;9.00;;;8.10;;
15022;SDS011;19850;49.576;10.880;2022-12-04T03:31:02;9.43;;;8.40;;
15022;SDS011;19850;49.576;10.880;2022-12-04T03:35:11;9.73;;;8.60;;
15022;SDS011;19850;49.576;10.880;2022-12-04T03:39:18;8.80;;;7.60;;
15022;SDS011;19850;49.576;10.880;2022-12-04T03:43:23;9.17;;;7.80;;
15022;SDS011;19850;49.576;10.880;2022-12-04T03:47:29;9.13;;;8.13;;
15022;SDS011;19850;49.576;10.880;2022-12-04T03:51:38;8.63;;;7.73;;
15022;SDS011;19850;49.576;10.880;2022-12-04T03:55:46;7.27;;;6.57;;
15022;SDS011;19850;49.576;10.880;2022-12-04T03:59:52;8.07;;;7.27;;
15022;SDS011;19850;49.576;10.880;2022-12-04T04:03:58;8.10;;;7.30;;
15022;SDS011;19850;49.576;10.880;2022-12-04T04:08:04;9.20;;;8.17;;
15022;SDS011;19850;49.576;10.880;2022-12-04T04:12:23;9.70;;;7.87;;
15022;SDS011;19850;49.576;10.880;2022-12-04T04:16:28;8.70;;;7.67;;
15022;SDS011;19850;49.576;10.880;2022-12-04T04:20:51;8.57;;;7.23;;
15022;SDS011;19850;49.576;10.880;2022-12-04T04:25:17;8.90;;;7.33;;
15022;SDS011;19850;49.576;10.880;2022-12-04T04:29:22;8.23;;;7.20;;
15022;SDS011;19850;49.576;10.880;2022-12-04T04:33:25;10.67;;;8.10;;
15022;SDS011;19850;49.576;10.880;2022-12-04T04:37:29;8.87;;;7.17;;
15022;SDS011;19850;49.576;10.880;2022-12-04T04:41:37;8.73;;;7.53;;
15022;SDS011;19850;49.576;10.880;2022-12-04T04:45:43;9.00;;;7.90;;
15022;SDS011;19850;49.576;10.880;2022-12-04T04:49:48;7.37;;;6.63;;
15022;SDS011;19850;49.576;10.880;2022-12-04T04:53:52;8.00;;;7.20;;
15022;SDS011;19850;49.576;10.880;2022-12-04T04:58:05;7.87;;;6.80;;
15022;SDS011;19850;49.576;10.880;2022-12-04T05:02:09;7.70;;;6.90;;
15022;SDS011;19850;49.576;10.880;2022-12-04T05:06:12;6.90;;;6.20;;
15022;SDS011;19850;49.576;10.880;2022-12-04T05:10:16;7.47;;;6.77;;
15022;SDS011;19850;49.576;10.880;2022-12-04T05:14:20;7.50;;;6.70;;
15022;SDS011;19850;49.576;10.880;2022-12-04T05:18:22;7.30;;;6.60;;
15022;SDS011;19850;49.576;10.880;2022-12-04T05:22:26;7.57;;;6.70;;
15022;SDS011;19850;49.576;10.880;2022-12-04T05:26:30;7.00;;;6.30;;
15022;SDS011;19850;49.576;10.880;2022-12-04T05:30:34;7.50;;;6.80;;
15022;SDS011;19850;49.576;10.880;2022-12-04T05:34:37;7.03;;;6.33;;
15022;SDS011;19850;49.576;10.880;2022-12-04T05:38:40;7.37;;;6.67;;
15022;SDS011;19850;49.576;10.880;2022-12-04T05:42:42;7.30;;;6.60;;
15022;SDS011;19850;49.576;10.880;2022-12-04T05:46:47;7.10;;;6.40;;
15022;SDS011;19850;49.576;10.880;2022-12-04T05:50:49;6.67;;;6.07;;
15022;SDS011;19850;49.576;10.880;2022-12-04T05:54:52;7.27;;;6.57;;
15022;SDS011;19850;49.576;10.880;2022-12-04T05:58:55;6.77;;;6.07;;
15022;SDS011;19850;49.576;10.880;2022-12-04T06:02:59;7.10;;;6.40;;
15022;SDS011;19850;49.576;10.880;2022-12-04T06:07:02;7.10;;;6.27;;
15022;SDS011;19850;49.576;10.880;2022-12-04T06:11:08;7.07;;;6.37;;
15022;SDS011;19850;49.576;10.880;2022-12-04T06:15:12;6.87;;;5.90;;
15022;SDS011;19850;49.576;10.880;2022-12-04T06:19:17;6.70;;;6.10;;
15022;SDS011;19850;49.576;10.880;2022-12-04T06:23:21;6.70;;;6.10;;
15022;SDS011;19850;49.576;10.880;2022-12-04T06:27:24;7.40;;;6.70;;
15022;SDS011;19850;49.576;10.880;2022-12-04T06:31:29;7.43;;;6.73;;
15022;SDS011;19850;49.576;10.880;2022-12-04T06:35:35;7.20;;;6.50;;
15022;SDS011;19850;49.576;10.880;2022-12-04T06:39:38;8.03;;;6.80;;
15022;SDS011;19850;49.576;10.880;2022-12-04T06:43:41;7.03;;;6.10;;
15022;SDS011;19850;49.576;10.880;2022-12-04T06:47:43;6.90;;;6.20;;
15022;SDS011;19850;49.576;10.880;2022-12-04T06:51:48;6.67;;;6.10;;
15022;SDS011;19850;49.576;10.880;2022-12-04T06:55:50;6.90;;;6.30;;
15022;SDS011;19850;49.576;10.880;2022-12-04T06:59:53;7.47;;;6.73;;
15022;SDS011;19850;49.576;10.880;2022-12-04T07:03:57;6.80;;;6.20;;
15022;SDS011;19850;49.576;10.880;2022-12-04T07:08:02;7.93;;;6.67;;
15022;SDS011;19850;49.576;10.880;2022-12-04T07:12:06;6.93;;;6.20;;
15022;SDS011;19850;49.576;10.880;2022-12-04T07:16:10;6.97;;;6.27;;
15022;SDS011;19850;49.576;10.880;2022-12-04T07:20:15;6.17;;;5.67;;
15022;SDS011;19850;49.576;10.880;2022-12-04T07:24:19;7.00;;;6.30;;
15022;SDS011;19850;49.576;10.880;2022-12-04T07:28:22;8.43;;;6.93;;
15022;SDS011;19850;49.576;10.880;2022-12-04T07:32:25;7.90;;;6.90;;
15022;SDS011;19850;49.576;10.880;2022-12-04T07:36:28;6.70;;;6.00;;
15022;SDS011;19850;49.576;10.880;2022-12-04T07:40:32;6.97;;;6.00;;
15022;SDS011;19850;49.576;10.880;2022-12-04T07:44:35;6.03;;;5.43;;
15022;SDS011;19850;49.576;10.880;2022-12-04T07:48:37;6.53;;;5.93;;
15022;SDS011;19850;49.576;10.880;2022-12-04T07:52:40;7.63;;;6.87;;
15022;SDS011;19850;49.576;10.880;2022-12-04T07:56:44;7.60;;;6.50;;
15022;SDS011;19850;49.576;10.880;2022-12-04T08:00:47;6.87;;;6.17;;
15022;SDS011;19850;49.576;10.880;2022-12-04T08:04:50;6.47;;;5.87;;
15022;SDS011;19850;49.576;10.880;2022-12-04T08:08:53;7.27;;;6.20;;
15022;SDS011;19850;49.576;10.880;2022-12-04T08:12:58;6.50;;;5.90;;
15022;SDS011;19850;49.576;10.880;2022-12-04T08:17:01;6.50;;;5.90;;
15022;SDS011;19850;49.576;10.880;2022-12-04T08:21:05;7.03;;;6.33;;
15022;SDS011;19850;49.576;10.880;2022-12-04T08:25:09;6.90;;;6.30;;
15022;SDS011;19850;49.576;10.880;2022-12-04T08:29:14;6.90;;;6.30;;
15022;SDS011;19850;49.576;10.880;2022-12-04T08:33:16;7.93;;;7.13;;
15022;SDS011;19850;49.576;10.880;2022-12-04T08:37:19;7.70;;;6.93;;
15022;SDS011;19850;49.576;10.880;2022-12-04T08:41:22;7.13;;;6.43;;
15022;SDS011;19850;49.576;10.880;2022-12-04T08:45:27;8.10;;;7.30;;
15022;SDS011;19850;49.576;10.880;2022-12-04T08:49:30;7.73;;;7.03;;
15022;SDS011;19850;49.576;10.880;2022-12-04T08:53:34;7.67;;;6.97;;
15022;SDS011;19850;49.576;10.880;2022-12-04T08:57:37;8.00;;;7.00;;
15022;SDS011;19850;49.576;10.880;2022-12-04T09:01:41;6.50;;;5.90;;
15022;SDS011;19850;49.576;10.880;2022-12-04T09:05:44;7.80;;;7.00;;
15022;SDS011;19850;49.576;10.880;2022-12-04T09:09:47;12.27;;;9.50;;
15022;SDS011;19850;49.576;10.880;2022-12-04T09:13:50;6.80;;;6.10;;
15022;SDS011;19850;49.576;10.880;2022-12-04T09:17:54;7.17;;;6.43;;
15022;SDS011;19850;49.576;10.880;2022-12-04T09:21:57;8.83;;;7.93;;
15022;SDS011;19850;49.576;10.880;2022-12-04T09:26:00;8.20;;;6.93;;
15022;SDS011;19850;49.576;10.880;2022-12-04T09:30:03;7.13;;;6.43;;
15022;SDS011;19850;49.576;10.880;2022-12-04T09:34:08;7.50;;;6.80;;
15022;SDS011;19850;49.576;10.880;2022-12-04T09:38:11;8.07;;;7.27;;
15022;SDS011;19850;49.576;10.880;2022-12-04T09:42:17;6.63;;;6.03;;
15022;SDS011;19850;49.576;10.880;2022-12-04T09:46:28;6.57;;;5.97;;
15022;SDS011;19850;49.576;10.880;2022-12-04T09:50:35;10.27;;;9.17;;
15022;SDS011;19850;49.576;10.880;2022-12-04T09:54:40;10.47;;;8.53;;
15022;SDS011;19850;49.576;10.880;2022-12-04T09:58:45;6.73;;;6.13;;
15022;SDS011;19850;49.576;10.880;2022-12-04T10:02:51;6.60;;;6.00;;
15022;SDS011;19850;49.576;10.880;2022-12-04T10:07:00;7.60;;;6.20;;
15022;SDS011;19850;49.576;10.880;2022-12-04T10:11:08;9.20;;;7.67;;
15022;SDS011;19850;49.576;10.880;2022-12-04T10:15:25;8.80;;;6.73;;
15022;SDS011;19850;49.576;10.880;2022-12-04T10:19:32;9.67;;;8.67;;
15022;SDS011;19850;49.576;10.880;2022-12-04T10:23:44;7.97;;;7.17;;
15022;SDS011;19850;49.576;10.880;2022-12-04T10:27:52;7.90;;;7.00;;
15022;SDS011;19850;49.576;10.880;2022-12-04T10:32:05;6.43;;;5.83;;
15022;SDS011;19850;49.576;10.880;2022-12-04T10:36:18;6.77;;;6.07;;
15022;SDS011;19850;49.576;10.880;2022-12-04T10:40:24;8.07;;;6.47;;
15022;SDS011;19850;49.576;10.880;2022-12-04T10:44:29;9.10;;;8.20;;
15022;SDS011;19850;49.576;10.880;2022-12-04T10:48:33;6.80;;;6.20;;
15022;SDS011;19850;49.576;10.880;2022-12-04T10:52:37;14.83;;;12.37;;
15022;SDS011;19850;49.576;10.880;2022-12-04T10:56:49;7.20;;;6.50;;
15022;SDS011;19850;49.576;10.880;2022-12-04T11:00:58;9.10;;;7.40;;
15022;SDS011;19850;49.576;10.880;2022-12-04T11:05:04;7.97;;;7.13;;
15022;SDS011;19850;49.576;10.880;2022-12-04T11:09:14;7.27;;;6.57;;
15022;SDS011;19850;49.576;10.880;2022-12-04T11:13:23;7.10;;;6.40;;
15022;SDS011;19850;49.576;10.880;2022-12-04T11:17:26;6.77;;;6.07;;
15022;SDS011;19850;49.576;10.880;2022-12-04T11:21:29;8.63;;;6.33;;
15022;SDS011;19850;49.576;10.880;2022-12-04T11:25:33;7.53;;;6.70;;
15022;SDS011;19850;49.576;10.880;2022-12-04T11:29:40;9.00;;;8.10;;
15022;SDS011;19850;49.576;10.880;2022-12-04T11:33:45;9.10;;;7.37;;
15022;SDS011;19850;49.576;10.880;2022-12-04T11:37:50;9.47;;;8.47;;
15022;SDS011;19850;49.576;10.880;2022-12-04T11:41:59;6.13;;;5.50;;
15022;SDS011;19850;49.576;10.880;2022-12-04T11:46:04;5.77;;;5.20;;
15022;SDS011;19850;49.576;10.880;2022-12-04T11:50:11;7.17;;;6.47;;
15022;SDS011;19850;49.576;10.880;2022-12-04T11:54:18;6.20;;;5.60;;
15022;SDS011;19850;49.576;10.880;2022-12-04T11:58:43;5.63;;;5.13;;
15022;SDS011;19850;49.576;10.880;2022-12-04T12:03:02;7.13;;;6.20;;
15022;SDS011;19850;49.576;10.880;2022-12-04T12:07:14;6.30;;;5.70;;
15022;SDS011;19850;49.576;10.880;2022-12-04T12:11:25;7.37;;;6.67;;
15022;SDS011;19850;49.576;10.880;2022-12-04T12:15:34;5.80;;;5.30;;
15022;SDS011;19850;49.576;10.880;2022-12-04T12:19:56;7.83;;;5.50;;
15022;SDS011;19850;49.576;10.880;2022-12-04T12:24:09;5.20;;;4.73;;
15022;SDS011;19850;49.576;10.880;2022-12-04T12:28:21;11.97;;;7.07;;
15022;SDS011;19850;49.576;10.880;2022-12-04T12:32:34;5.80;;;5.30;;
15022;SDS011;19850;49.576;10.880;2022-12-04T12:36:44;6.07;;;5.57;;
15022;SDS011;19850;49.576;10.880;2022-12-04T12:40:50;5.50;;;5.00;;
15022;SDS011;19850;49.576;10.880;2022-12-04T12:44:58;5.23;;;4.83;;
15022;SDS011;19850;49.576;10.880;2022-12-04T12:49:04;7.03;;;6.33;;
15022;SDS011;19850;49.576;10.880;2022-12-04T12:53:12;6.60;;;5.87;;
15022;SDS011;19850;49.576;10.880;2022-12-04T12:57:18;6.60;;;5.33;;
15022;SDS011;19850;49.576;10.880;2022-12-04T13:01:23;8.83;;;6.60;;
15022;SDS011;19850;49.576;10.880;2022-12-04T13:05:32;6.87;;;5.43;;
15022;SDS011;19850;49.576;10.880;2022-12-04T13:09:39;7.17;;;6.20;;
15022;SDS011;19850;49.576;10.880;2022-12-04T13:13:44;5.73;;;5.17;;
15022;SDS011;19850;49.576;10.880;2022-12-04T13:17:49;7.03;;;6.30;;
15022;SDS011;19850;49.576;10.880;2022-12-04T13:21:55;7.10;;;6.40;;
15022;SDS011;19850;49.576;10.880;2022-12-04T13:26:04;7.13;;;6.37;;
15022;SDS011;19850;49.576;10.880;2022-12-04T13:30:13;6.43;;;5.83;;
15022;SDS011;19850;49.576;10.880;2022-12-04T13:34:30;6.57;;;5.97;;
15022;SDS011;19850;49.576;10.880;2022-12-04T13:38:42;6.03;;;5.50;;
15022;SDS011;19850;49.576;10.880;2022-12-04T13:43:11;7.50;;;6.60;;
15022;SDS011;19850;49.576;10.880;2022-12-04T13:47:23;7.77;;;6.93;;
15022;SDS011;19850;49.576;10.880;2022-12-04T13:51:35;7.17;;;6.57;;
15022;SDS011;19850;49.576;10.880;2022-12-04T13:55:39;6.63;;;6.10;;
15022;SDS011;19850;49.576;10.880;2022-12-04T13:59:43;6.53;;;5.93;;
15022;SDS011;19850;49.576;10.880;2022-12-04T14:03:47;6.50;;;5.90;;
15022;SDS011;19850;49.576;10.880;2022-12-04T14:07:55;9.40;;;8.47;;
15022;SDS011;19850;49.576;10.880;2022-12-04T14:12:08;7.77;;;6.97;;
15022;SDS011;19850;49.576;10.880;2022-12-04T14:16:19;8.53;;;7.30;;
15022;SDS011;19850;49.576;10.880;2022-12-04T14:20:24;7.67;;;6.87;;
15022;SDS011;19850;49.576;10.880;2022-12-04T14:24:30;6.70;;;6.00;;
15022;SDS011;19850;49.576;10.880;2022-12-04T14:28:37;6.97;;;6.23;;
15022;SDS011;19850;49.576;10.880;2022-12-04T14:32:44;7.40;;;6.67;;
15022;SDS011;19850;49.576;10.880;2022-12-04T14:36:49;6.80;;;6.10;;
15022;SDS011;19850;49.576;10.880;2022-12-04T14:40:53;9.90;;;7.33;;
15022;SDS011;19850;49.576;10.880;2022-12-04T14:44:59;7.57;;;6.77;;
15022;SDS011;19850;49.576;10.880;2022-12-04T14:49:07;7.47;;;6.77;;
15022;SDS011;19850;49.576;10.880;2022-12-04T14:53:22;8.50;;;7.70;;
15022;SDS011;19850;49.576;10.880;2022-12-04T14:57:39;7.30;;;6.60;;
15022;SDS011;19850;49.576;10.880;2022-12-04T15:01:47;10.10;;;9.03;;
15022;SDS011;19850;49.576;10.880;2022-12-04T15:05:52;8.13;;;7.43;;
15022;SDS011;19850;49.576;10.880;2022-12-04T15:10:15;9.17;;;7.60;;
15022;SDS011;19850;49.576;10.880;2022-12-04T15:14:38;7.57;;;6.73;;
15022;SDS011;19850;49.576;10.880;2022-12-04T15:18:51;7.50;;;6.70;;
15022;SDS011;19850;49.576;10.880;2022-12-04T15:22:56;7.90;;;7.10;;
15022;SDS011;19850;49.576;10.880;2022-12-04T15:26:59;8.60;;;7.77;;
15022;SDS011;19850;49.576;10.880;2022-12-04T15:31:02;7.27;;;6.57;;
15022;SDS011;19850;49.576;10.880;2022-12-04T15:35:08;8.70;;;7.90;;
15022;SDS011;19850;49.576;10.880;2022-12-04T15:39:17;8.80;;;7.90;;
15022;SDS011;19850;49.576;10.880;2022-12-04T15:43:22;8.10;;;7.30;;
15022;SDS011;19850;49.576;10.880;2022-12-04T15:47:29;10.27;;;9.07;;
15022;SDS011;19850;49.576;10.880;2022-12-04T15:51:33;8.43;;;7.60;;
15022;SDS011;19850;49.576;10.880;2022-12-04T15:55:38;8.83;;;7.93;;
15022;SDS011;19850;49.576;10.880;2022-12-04T15:59:46;8.30;;;7.50;;
15022;SDS011;19850;49.576;10.880;2022-12-04T16:03:50;8.90;;;8.00;;
15022;SDS011;19850;49.576;10.880;2022-12-04T16:07:55;9.40;;;8.43;;
15022;SDS011;19850;49.576;10.880;2022-12-04T16:12:02;9.63;;;8.63;;
15022;SDS011;19850;49.576;10.880;2022-12-04T16:16:06;9.27;;;8.10;;
15022;SDS011;19850;49.576;10.880;2022-12-04T16:20:12;9.10;;;8.20;;
15022;SDS011;19850;49.576;10.880;2022-12-04T16:24:15;10.03;;;8.47;;
15022;SDS011;19850;49.576;10.880;2022-12-04T16:28:19;9.03;;;7.30;;
15022;SDS011;19850;49.576;10.880;2022-12-04T16:32:23;10.07;;;7.80;;
15022;SDS011;19850;49.576;10.880;2022-12-04T16:36:29;9.07;;;8.17;;
15022;SDS011;19850;49.576;10.880;2022-12-04T16:40:32;8.10;;;7.30;;
15022;SDS011;19850;49.576;10.880;2022-12-04T16:44:37;9.60;;;8.60;;
15022;SDS011;19850;49.576;10.880;2022-12-04T16:48:40;9.20;;;8.20;;
15022;SDS011;19850;49.576;10.880;2022-12-04T16:52:44;9.03;;;7.70;;
15022;SDS011;19850;49.576;10.880;2022-12-04T16:56:47;9.43;;;8.43;;
15022;SDS011;19850;49.576;10.880;2022-12-04T17:00:52;9.90;;;8.90;;
15022;SDS011;19850;49.576;10.880;2022-12-04T17:04:56;9.40;;;8.50;;
15022;SDS011;19850;49.576;10.880;2022-12-04T17:08:58;9.70;;;8.70;;
15022;SDS011;19850;49.576;10.880;2022-12-04T17:13:01;9.70;;;8.70;;
15022;SDS011;19850;49.576;10.880;2022-12-04T17:17:05;8.80;;;7.90;;
15022;SDS011;19850;49.576;10.880;2022-12-04T17:21:09;9.27;;;8.23;;
15022;SDS011;19850;49.576;10.880;2022-12-04T17:25:13;11.53;;;9.93;;
15022;SDS011;19850;49.576;10.880;2022-12-04T17:29:16;11.27;;;10.07;;
15022;SDS011;19850;49.576;10.880;2022-12-04T17:33:21;16.87;;;12.90;;
15022;SDS011;19850;49.576;10.880;2022-12-04T17:37:24;19.03;;;13.50;;
15022;SDS011;19850;49.576;10.880;2022-12-04T17:41:27;17.23;;;13.73;;
15022;SDS011;19850;49.576;10.880;2022-12-04T17:45:30;17.87;;;14.20;;
15022;SDS011;19850;49.576;10.880;2022-12-04T17:49:34;14.60;;;11.60;;
15022;SDS011;19850;49.576;10.880;2022-12-04T17:53:37;10.90;;;9.37;;
15022;SDS011;19850;49.576;10.880;2022-12-04T17:57:40;9.57;;;8.67;;
15022;SDS011;19850;49.576;10.880;2022-12-04T18:01:42;19.23;;;11.10;;
15022;SDS011;19850;49.576;10.880;2022-12-04T18:05:47;16.43;;;12.00;;
15022;SDS011;19850;49.576;10.880;2022-12-04T18:09:50;11.83;;;10.50;;
15022;SDS011;19850;49.576;10.880;2022-12-04T18:13:53;10.60;;;9.20;;
15022;SDS011;19850;49.576;10.880;2022-12-04T18:17:57;12.10;;;10.80;;
15022;SDS011;19850;49.576;10.880;2022-12-04T18:22:01;10.60;;;9.50;;
15022;SDS011;19850;49.576;10.880;2022-12-04T18:26:04;12.27;;;10.63;;
15022;SDS011;19850;49.576;10.880;2022-12-04T18:30:08;18.97;;;17.07;;
15022;SDS011;19850;49.576;10.880;2022-12-04T18:34:12;10.20;;;9.20;;
15022;SDS011;19850;49.576;10.880;2022-12-04T18:38:17;9.90;;;8.90;;
15022;SDS011;19850;49.576;10.880;2022-12-04T18:42:20;10.00;;;8.50;;
15022;SDS011;19850;49.576;10.880;2022-12-04T18:46:23;9.90;;;8.63;;
15022;SDS011;19850;49.576;10.880;2022-12-04T18:50:27;10.40;;;8.93;;
15022;SDS011;19850;49.576;10.880;2022-12-04T18:54:32;11.83;;;9.73;;
15022;SDS011;19850;49.576;10.880;2022-12-04T18:58:34;10.53;;;9.43;;
15022;SDS011;19850;49.576;10.880;2022-12-04T19:02:37;9.97;;;8.97;;
15022;SDS011;19850;49.576;10.880;2022-12-04T19:06:40;10.13;;;9.13;;
15022;SDS011;19850;49.576;10.880;2022-12-04T19:10:45;13.13;;;10.73;;
15022;SDS011;19850;49.576;10.880;2022-12-04T19:14:48;24.30;;;17.53;;
15022;SDS011;19850;49.576;10.880;2022-12-04T19:18:51;47.83;;;27.17;;
15022;SDS011;19850;49.576;10.880;2022-12-04T19:22:53;17.77;;;13.37;;
15022;SDS011;19850;49.576;10.880;2022-12-04T19:26:57;13.03;;;10.07;;
15022;SDS011;19850;49.576;10.880;2022-12-04T19:31:02;11.27;;;10.07;;
15022;SDS011;19850;49.576;10.880;2022-12-04T19:35:05;13.17;;;11.77;;
15022;SDS011;19850;49.576;10.880;2022-12-04T19:39:08;12.93;;;11.63;;
15022;SDS011;19850;49.576;10.880;2022-12-04T19:43:13;18.07;;;14.13;;
15022;SDS011;19850;49.576;10.880;2022-12-04T19:47:16;17.87;;;14.40;;
15022;SDS011;19850;49.576;10.880;2022-12-04T19:51:19;24.80;;;16.43;;
15022;SDS011;19850;49.576;10.880;2022-12-04T19:55:23;17.37;;;13.40;;
15022;SDS011;19850;49.576;10.880;2022-12-04T19:59:27;15.70;;;11.87;;
15022;SDS011;19850;49.576;10.880;2022-12-04T20:03:37;13.60;;;12.27;;
15022;SDS011;19850;49.576;10.880;2022-12-04T20:07:40;14.37;;;12.50;;
15022;SDS011;19850;49.576;10.880;2022-12-04T20:11:42;15.17;;;13.57;;
15022;SDS011;19850;49.576;10.880;2022-12-04T20:15:46;15.37;;;13.77;;
15022;SDS011;19850;49.576;10.880;2022-12-04T20:19:49;13.40;;;12.00;;
15022;SDS011;19850;49.576;10.880;2022-12-04T20:23:52;14.87;;;12.50;;
15022;SDS011;19850;49.576;10.880;2022-12-04T20:27:55;14.43;;;12.80;;
15022;SDS011;19850;49.576;10.880;2022-12-04T20:31:59;13.33;;;12.03;;
15022;SDS011;19850;49.576;10.880;2022-12-04T20:36:02;13.97;;;12.50;;
15022;SDS011;19850;49.576;10.880;2022-12-04T20:40:05;13.27;;;11.13;;
15022;SDS011;19850;49.576;10.880;2022-12-04T20:44:11;13.37;;;11.90;;
15022;SDS011;19850;49.576;10.880;2022-12-04T20:48:16;16.80;;;13.50;;
15022;SDS011;19850;49.576;10.880;2022-12-04T20:52:19;21.87;;;14.97;;
15022;SDS011;19850;49.576;10.880;2022-12-04T20:56:22;20.33;;;15.20;;
15022;SDS011;19850;49.576;10.880;2022-12-04T21:00:26;14.40;;;12.67;;
15022;SDS011;19850;49.576;10.880;2022-12-04T21:04:30;14.63;;;12.83;;
15022;SDS011;19850;49.576;10.880;2022-12-04T21:08:32;14.17;;;12.77;;
15022;SDS011;19850;49.576;10.880;2022-12-04T21:12:55;13.97;;;12.17;;
15022;SDS011;19850;49.576;10.880;2022-12-04T21:17:16;13.57;;;12.10;;
15022;SDS011;19850;49.576;10.880;2022-12-04T21:21:21;13.53;;;12.13;;
15022;SDS011;19850;49.576;10.880;2022-12-04T21:25:24;12.67;;;11.37;;
15022;SDS011;19850;49.576;10.880;2022-12-04T21:29:28;13.03;;;11.63;;
15022;SDS011;19850;49.576;10.880;2022-12-04T21:33:31;14.13;;;12.63;;
15022;SDS011;19850;49.576;10.880;2022-12-04T21:37:35;12.87;;;10.97;;
15022;SDS011;19850;49.576;10.880;2022-12-04T21:41:38;13.60;;;11.30;;
15022;SDS011;19850;49.576;10.880;2022-12-04T21:45:59;12.67;;;10.80;;
15022;SDS011;19850;49.576;10.880;2022-12-04T21:50:09;11.60;;;10.40;;
15022;SDS011;19850;49.576;10.880;2022-12-04T21:54:13;11.87;;;10.53;;
15022;SDS011;19850;49.576;10.880;2022-12-04T21:58:16;12.10;;;10.90;;
15022;SDS011;19850;49.576;10.880;2022-12-04T22:02:19;12.13;;;10.93;;
15022;SDS011;19850;49.576;10.880;2022-12-04T22:06:23;12.93;;;11.63;;
15022;SDS011;19850;49.576;10.880;2022-12-04T22:10:28;16.07;;;12.73;;
15022;SDS011;19850;49.576;10.880;2022-12-04T22:14:30;14.60;;;12.83;;
15022;SDS011;19850;49.576;10.880;2022-12-04T22:18:33;14.33;;;12.70;;
15022;SDS011;19850;49.576;10.880;2022-12-04T22:22:36;13.47;;;11.50;;
15022;SDS011;19850;49.576;10.880;2022-12-04T22:26:40;13.87;;;12.03;;
15022;SDS011;19850;49.576;10.880;2022-12-04T22:30:43;13.10;;;11.43;;
15022;SDS011;19850;49.576;10.880;2022-12-04T22:34:46;12.47;;;11.17;;
15022;SDS011;19850;49.576;10.880;2022-12-04T22:38:49;12.47;;;11.27;;
15022;SDS011;19850;49.576;10.880;2022-12-04T22:43:11;12.27;;;10.80;;
15022;SDS011;19850;49.576;10.880;2022-12-04T22:47:13;12.70;;;11.47;;
15022;SDS011;19850;49.576;10.880;2022-12-04T22:51:17;11.87;;;10.43;;
15022;SDS011;19850;49.576;10.880;2022-12-04T22:55:20;12.40;;;10.73;;
15022;SDS011;19850;49.576;10.880;2022-12-04T22:59:24;13.37;;;11.93;;
15022;SDS011;19850;49.576;10.880;2022-12-04T23:03:27;13.03;;;11.70;;
15022;SDS011;19850;49.576;10.880;2022-12-04T23:07:30;13.20;;;11.80;;
15022;SDS011;19850;49.576;10.880;2022-12-04T23:11:33;13.27;;;11.90;;
15022;SDS011;19850;49.576;10.880;2022-12-04T23:15:37;13.80;;;12.10;;
15022;SDS011;19850;49.576;10.880;2022-12-04T23:19:40;13.37;;;11.87;;
15022;SDS011;19850;49.576;10.880;2022-12-04T23:23:43;13.33;;;11.80;;
15022;SDS011;19850;49.576;10.880;2022-12-04T23:27:47;14.63;;;12.07;;
15022;SDS011;19850;49.576;10.880;2022-12-04T23:31:51;13.50;;;12.10;;
15022;SDS011;19850;49.576;10.880;2022-12-04T23:35:55;13.80;;;12.27;;
15022;SDS011;19850;49.576;10.880;2022-12-04T23:39:58;14.20;;;12.47;;
15022;SDS011;19850;49.576;10.880;2022-12-04T23:44:01;14.13;;;12.63;;
15022;SDS011;19850;49.576;10.880;2022-12-04T23:48:05;15.17;;;12.73;;
15022;SDS011;19850;49.576;10.880;2022-12-04T23:52:08;14.30;;;12.10;;
15022;SDS011;19850;49.576;10.880;2022-12-04T23:56:12;14.93;;;13.23;;
